sensor_id;sensor_type;location;lat;lon;timestamp;P1;durP1;ratioP1;P2;durP2;ratioP2
29210;SDS011;16250;49.932;10.980;2024-03-02T00:02:07;60.28;;;42.88;;
29210;SDS011;16250;49.932;10.980;2024-03-02T00:04:33;57.92;;;40.78;;
29210;SDS011;16250;49.932;10.980;2024-03-02T00:06:58;61.65;;;43.58;;
29210;SDS011;16250;49.932;10.980;2024-03-02T00:09:24;52.45;;;39.67;;
29210;SDS011;16250;49.932;10.980;2024-03-02T00:11:49;57.00;;;41.20;;
29210;SDS011;16250;49.932;10.980;2024-03-02T00:14:16;56.45;;;40.67;;
29210;SDS011;16250;49.932;10.980;2024-03-02T00:16:42;61.60;;;40.88;;
29210;SDS011;16250;49.932;10.980;2024-03-02T00:19:07;59.08;;;42.83;;
29210;SDS011;16250;49.932;10.980;2024-03-02T00:21:34;60.28;;;43.72;;
29210;SDS011;16250;49.932;10.980;2024-03-02T00:23:59;59.35;;;43.92;;
29210;SDS011;16250;49.932;10.980;2024-03-02T00:26:27;61.03;;;43.15;;
29210;SDS011;16250;49.932;10.980;2024-03-02T00:28:54;54.70;;;40.35;;
29210;SDS011;16250;49.932;10.980;2024-03-02T00:31:21;57.13;;;42.33;;
29210;SDS011;16250;49.932;10.980;2024-03-02T00:33:48;59.17;;;43.78;;
29210;SDS011;16250;49.932;10.980;2024-03-02T00:36:14;56.33;;;40.63;;
29210;SDS011;16250;49.932;10.980;2024-03-02T00:38:47;53.65;;;40.33;;
29210;SDS011;16250;49.932;10.980;2024-03-02T00:41:24;55.90;;;40.42;;
29210;SDS011;16250;49.932;10.980;2024-03-02T00:46:34;56.30;;;42.45;;
29210;SDS011;16250;49.932;10.980;2024-03-02T00:49:43;63.25;;;45.05;;
29210;SDS011;16250;49.932;10.980;2024-03-02T00:51:51;64.72;;;43.92;;
29210;SDS011;16250;49.932;10.980;2024-03-02T00:54:19;62.45;;;44.15;;
29210;SDS011;16250;49.932;10.980;2024-03-02T00:56:45;59.50;;;44.38;;
29210;SDS011;16250;49.932;10.980;2024-03-02T00:59:12;59.47;;;43.13;;
29210;SDS011;16250;49.932;10.980;2024-03-02T01:01:37;62.95;;;45.15;;
29210;SDS011;16250;49.932;10.980;2024-03-02T01:04:03;68.10;;;46.55;;
29210;SDS011;16250;49.932;10.980;2024-03-02T01:06:29;61.03;;;45.03;;
29210;SDS011;16250;49.932;10.980;2024-03-02T01:08:55;61.50;;;45.25;;
29210;SDS011;16250;49.932;10.980;2024-03-02T01:11:20;61.83;;;44.17;;
29210;SDS011;16250;49.932;10.980;2024-03-02T01:13:48;63.78;;;46.00;;
29210;SDS011;16250;49.932;10.980;2024-03-02T01:16:14;62.75;;;45.10;;
29210;SDS011;16250;49.932;10.980;2024-03-02T01:18:40;61.83;;;43.45;;
29210;SDS011;16250;49.932;10.980;2024-03-02T01:21:06;65.53;;;46.28;;
29210;SDS011;16250;49.932;10.980;2024-03-02T01:23:32;68.80;;;46.92;;
29210;SDS011;16250;49.932;10.980;2024-03-02T01:25:57;66.53;;;44.72;;
29210;SDS011;16250;49.932;10.980;2024-03-02T01:28:23;66.57;;;46.85;;
29210;SDS011;16250;49.932;10.980;2024-03-02T01:30:48;66.97;;;46.10;;
29210;SDS011;16250;49.932;10.980;2024-03-02T01:33:14;63.92;;;45.92;;
29210;SDS011;16250;49.932;10.980;2024-03-02T01:35:40;67.18;;;47.15;;
29210;SDS011;16250;49.932;10.980;2024-03-02T01:38:05;66.47;;;47.10;;
29210;SDS011;16250;49.932;10.980;2024-03-02T01:40:32;69.18;;;48.28;;
29210;SDS011;16250;49.932;10.980;2024-03-02T01:42:58;63.55;;;46.38;;
29210;SDS011;16250;49.932;10.980;2024-03-02T01:45:24;69.40;;;47.88;;
29210;SDS011;16250;49.932;10.980;2024-03-02T01:47:49;67.22;;;45.90;;
29210;SDS011;16250;49.932;10.980;2024-03-02T01:50:15;68.82;;;46.25;;
29210;SDS011;16250;49.932;10.980;2024-03-02T01:52:41;67.90;;;47.75;;
29210;SDS011;16250;49.932;10.980;2024-03-02T01:55:07;66.30;;;47.60;;
29210;SDS011;16250;49.932;10.980;2024-03-02T01:57:33;72.18;;;49.78;;
29210;SDS011;16250;49.932;10.980;2024-03-02T02:00:01;62.55;;;46.03;;
29210;SDS011;16250;49.932;10.980;2024-03-02T02:02:36;67.85;;;46.78;;
29210;SDS011;16250;49.932;10.980;2024-03-02T02:05:02;67.90;;;46.05;;
29210;SDS011;16250;49.932;10.980;2024-03-02T02:07:28;65.97;;;46.47;;
29210;SDS011;16250;49.932;10.980;2024-03-02T02:09:53;63.28;;;44.47;;
29210;SDS011;16250;49.932;10.980;2024-03-02T02:12:19;65.82;;;46.85;;
29210;SDS011;16250;49.932;10.980;2024-03-02T02:14:47;62.72;;;45.03;;
29210;SDS011;16250;49.932;10.980;2024-03-02T02:17:16;64.63;;;46.83;;
29210;SDS011;16250;49.932;10.980;2024-03-02T02:19:41;64.43;;;46.67;;
29210;SDS011;16250;49.932;10.980;2024-03-02T02:22:07;66.18;;;45.60;;
29210;SDS011;16250;49.932;10.980;2024-03-02T02:24:33;63.13;;;44.40;;
29210;SDS011;16250;49.932;10.980;2024-03-02T02:26:58;63.08;;;45.88;;
29210;SDS011;16250;49.932;10.980;2024-03-02T02:29:23;65.03;;;46.08;;
29210;SDS011;16250;49.932;10.980;2024-03-02T02:31:49;67.22;;;45.88;;
29210;SDS011;16250;49.932;10.980;2024-03-02T02:34:14;66.38;;;46.25;;
29210;SDS011;16250;49.932;10.980;2024-03-02T02:36:40;62.40;;;44.95;;
29210;SDS011;16250;49.932;10.980;2024-03-02T02:39:06;66.47;;;45.60;;
29210;SDS011;16250;49.932;10.980;2024-03-02T02:41:33;66.93;;;45.22;;
29210;SDS011;16250;49.932;10.980;2024-03-02T02:43:59;66.90;;;47.17;;
29210;SDS011;16250;49.932;10.980;2024-03-02T02:46:24;69.28;;;48.67;;
29210;SDS011;16250;49.932;10.980;2024-03-02T02:48:49;68.70;;;49.45;;
29210;SDS011;16250;49.932;10.980;2024-03-02T02:51:16;70.35;;;48.70;;
29210;SDS011;16250;49.932;10.980;2024-03-02T02:53:42;74.03;;;51.25;;
29210;SDS011;16250;49.932;10.980;2024-03-02T02:56:07;69.22;;;47.25;;
29210;SDS011;16250;49.932;10.980;2024-03-02T02:58:32;68.68;;;47.60;;
29210;SDS011;16250;49.932;10.980;2024-03-02T03:00:58;66.25;;;45.45;;
29210;SDS011;16250;49.932;10.980;2024-03-02T03:03:23;65.57;;;45.95;;
29210;SDS011;16250;49.932;10.980;2024-03-02T03:05:48;65.70;;;45.33;;
29210;SDS011;16250;49.932;10.980;2024-03-02T03:08:14;61.63;;;45.20;;
29210;SDS011;16250;49.932;10.980;2024-03-02T03:10:41;61.30;;;43.60;;
29210;SDS011;16250;49.932;10.980;2024-03-02T03:13:06;64.32;;;45.17;;
29210;SDS011;16250;49.932;10.980;2024-03-02T03:15:34;61.88;;;46.17;;
29210;SDS011;16250;49.932;10.980;2024-03-02T03:18:00;61.50;;;44.33;;
29210;SDS011;16250;49.932;10.980;2024-03-02T03:20:25;57.47;;;43.45;;
29210;SDS011;16250;49.932;10.980;2024-03-02T03:22:50;56.15;;;42.40;;
29210;SDS011;16250;49.932;10.980;2024-03-02T03:25:16;55.63;;;41.92;;
29210;SDS011;16250;49.932;10.980;2024-03-02T03:27:41;56.03;;;41.58;;
29210;SDS011;16250;49.932;10.980;2024-03-02T03:30:07;54.42;;;40.03;;
29210;SDS011;16250;49.932;10.980;2024-03-02T03:32:32;53.22;;;39.83;;
29210;SDS011;16250;49.932;10.980;2024-03-02T03:34:57;51.08;;;38.63;;
29210;SDS011;16250;49.932;10.980;2024-03-02T03:37:23;52.70;;;37.80;;
29210;SDS011;16250;49.932;10.980;2024-03-02T03:39:49;46.83;;;37.10;;
29210;SDS011;16250;49.932;10.980;2024-03-02T03:42:14;51.28;;;37.60;;
29210;SDS011;16250;49.932;10.980;2024-03-02T03:44:40;47.78;;;36.03;;
29210;SDS011;16250;49.932;10.980;2024-03-02T03:47:06;46.35;;;36.25;;
29210;SDS011;16250;49.932;10.980;2024-03-02T03:49:32;49.63;;;36.38;;
29210;SDS011;16250;49.932;10.980;2024-03-02T03:51:57;47.38;;;34.53;;
29210;SDS011;16250;49.932;10.980;2024-03-02T03:54:22;46.13;;;34.35;;
29210;SDS011;16250;49.932;10.980;2024-03-02T03:56:48;44.67;;;34.60;;
29210;SDS011;16250;49.932;10.980;2024-03-02T03:59:13;46.42;;;35.67;;
29210;SDS011;16250;49.932;10.980;2024-03-02T04:01:38;46.17;;;33.55;;
29210;SDS011;16250;49.932;10.980;2024-03-02T04:04:04;42.42;;;33.63;;
29210;SDS011;16250;49.932;10.980;2024-03-02T04:06:29;48.75;;;35.72;;
29210;SDS011;16250;49.932;10.980;2024-03-02T04:08:55;43.08;;;33.53;;
29210;SDS011;16250;49.932;10.980;2024-03-02T04:11:20;42.42;;;33.47;;
29210;SDS011;16250;49.932;10.980;2024-03-02T04:13:46;43.60;;;33.67;;
29210;SDS011;16250;49.932;10.980;2024-03-02T04:16:11;42.15;;;32.50;;
29210;SDS011;16250;49.932;10.980;2024-03-02T04:18:37;43.75;;;33.70;;
29210;SDS011;16250;49.932;10.980;2024-03-02T04:21:03;47.40;;;34.17;;
29210;SDS011;16250;49.932;10.980;2024-03-02T04:23:28;45.15;;;32.92;;
29210;SDS011;16250;49.932;10.980;2024-03-02T04:25:54;47.15;;;33.72;;
29210;SDS011;16250;49.932;10.980;2024-03-02T04:28:19;40.95;;;31.95;;
29210;SDS011;16250;49.932;10.980;2024-03-02T04:30:44;42.13;;;31.85;;
29210;SDS011;16250;49.932;10.980;2024-03-02T04:33:10;43.90;;;32.45;;
29210;SDS011;16250;49.932;10.980;2024-03-02T04:35:38;40.78;;;31.67;;
29210;SDS011;16250;49.932;10.980;2024-03-02T04:38:03;41.33;;;32.42;;
29210;SDS011;16250;49.932;10.980;2024-03-02T04:40:29;43.42;;;32.05;;
29210;SDS011;16250;49.932;10.980;2024-03-02T04:42:54;41.28;;;30.88;;
29210;SDS011;16250;49.932;10.980;2024-03-02T04:45:20;40.97;;;31.58;;
29210;SDS011;16250;49.932;10.980;2024-03-02T04:47:45;36.15;;;29.00;;
29210;SDS011;16250;49.932;10.980;2024-03-02T04:50:10;39.58;;;30.95;;
29210;SDS011;16250;49.932;10.980;2024-03-02T04:52:36;40.85;;;31.50;;
29210;SDS011;16250;49.932;10.980;2024-03-02T04:55:02;39.67;;;29.38;;
29210;SDS011;16250;49.932;10.980;2024-03-02T04:57:46;39.60;;;29.25;;
29210;SDS011;16250;49.932;10.980;2024-03-02T05:00:12;36.40;;;28.02;;
29210;SDS011;16250;49.932;10.980;2024-03-02T05:02:38;36.35;;;26.83;;
29210;SDS011;16250;49.932;10.980;2024-03-02T05:05:04;33.35;;;25.95;;
29210;SDS011;16250;49.932;10.980;2024-03-02T05:07:29;37.13;;;26.83;;
29210;SDS011;16250;49.932;10.980;2024-03-02T05:09:54;32.58;;;25.58;;
29210;SDS011;16250;49.932;10.980;2024-03-02T05:12:20;38.03;;;29.75;;
29210;SDS011;16250;49.932;10.980;2024-03-02T05:15:08;36.50;;;28.23;;
29210;SDS011;16250;49.932;10.980;2024-03-02T05:17:44;33.85;;;26.40;;
29210;SDS011;16250;49.932;10.980;2024-03-02T05:20:09;33.33;;;25.10;;
29210;SDS011;16250;49.932;10.980;2024-03-02T05:22:35;33.08;;;26.40;;
29210;SDS011;16250;49.932;10.980;2024-03-02T05:25:01;32.83;;;25.13;;
29210;SDS011;16250;49.932;10.980;2024-03-02T05:27:28;32.45;;;25.45;;
29210;SDS011;16250;49.932;10.980;2024-03-02T05:29:53;29.60;;;23.90;;
29210;SDS011;16250;49.932;10.980;2024-03-02T05:32:18;28.73;;;23.60;;
29210;SDS011;16250;49.932;10.980;2024-03-02T05:34:44;30.48;;;24.15;;
29210;SDS011;16250;49.932;10.980;2024-03-02T05:37:09;26.65;;;22.08;;
29210;SDS011;16250;49.932;10.980;2024-03-02T05:39:35;30.70;;;24.58;;
29210;SDS011;16250;49.932;10.980;2024-03-02T05:42:00;30.45;;;24.35;;
29210;SDS011;16250;49.932;10.980;2024-03-02T05:44:25;30.20;;;24.40;;
29210;SDS011;16250;49.932;10.980;2024-03-02T05:46:51;30.75;;;24.13;;
29210;SDS011;16250;49.932;10.980;2024-03-02T05:49:16;33.67;;;25.38;;
29210;SDS011;16250;49.932;10.980;2024-03-02T05:51:42;34.40;;;25.33;;
29210;SDS011;16250;49.932;10.980;2024-03-02T05:54:07;33.58;;;26.55;;
29210;SDS011;16250;49.932;10.980;2024-03-02T05:56:32;34.13;;;27.38;;
29210;SDS011;16250;49.932;10.980;2024-03-02T05:58:58;34.28;;;26.75;;
29210;SDS011;16250;49.932;10.980;2024-03-02T06:01:39;33.75;;;25.98;;
29210;SDS011;16250;49.932;10.980;2024-03-02T06:04:05;32.28;;;25.20;;
29210;SDS011;16250;49.932;10.980;2024-03-02T06:06:30;34.13;;;26.23;;
29210;SDS011;16250;49.932;10.980;2024-03-02T06:08:58;33.13;;;24.50;;
29210;SDS011;16250;49.932;10.980;2024-03-02T06:11:24;28.58;;;23.42;;
29210;SDS011;16250;49.932;10.980;2024-03-02T06:13:50;30.58;;;24.08;;
29210;SDS011;16250;49.932;10.980;2024-03-02T06:16:15;31.25;;;23.50;;
29210;SDS011;16250;49.932;10.980;2024-03-02T06:18:40;29.85;;;23.92;;
29210;SDS011;16250;49.932;10.980;2024-03-02T06:21:06;28.83;;;23.55;;
29210;SDS011;16250;49.932;10.980;2024-03-02T06:23:31;29.45;;;23.10;;
29210;SDS011;16250;49.932;10.980;2024-03-02T06:25:57;29.33;;;23.45;;
29210;SDS011;16250;49.932;10.980;2024-03-02T06:28:22;29.98;;;23.30;;
29210;SDS011;16250;49.932;10.980;2024-03-02T06:30:48;28.77;;;24.27;;
29210;SDS011;16250;49.932;10.980;2024-03-02T06:33:13;38.05;;;29.13;;
29210;SDS011;16250;49.932;10.980;2024-03-02T06:35:38;33.05;;;27.45;;
29210;SDS011;16250;49.932;10.980;2024-03-02T06:38:04;34.28;;;27.35;;
29210;SDS011;16250;49.932;10.980;2024-03-02T06:40:29;32.95;;;25.90;;
29210;SDS011;16250;49.932;10.980;2024-03-02T06:42:54;31.55;;;25.40;;
29210;SDS011;16250;49.932;10.980;2024-03-02T06:45:20;34.45;;;25.80;;
29210;SDS011;16250;49.932;10.980;2024-03-02T06:47:45;39.90;;;28.63;;
29210;SDS011;16250;49.932;10.980;2024-03-02T06:50:11;36.08;;;28.73;;
29210;SDS011;16250;49.932;10.980;2024-03-02T06:52:36;37.28;;;27.92;;
29210;SDS011;16250;49.932;10.980;2024-03-02T06:55:02;41.72;;;29.60;;
29210;SDS011;16250;49.932;10.980;2024-03-02T06:57:29;39.17;;;28.83;;
29210;SDS011;16250;49.932;10.980;2024-03-02T06:59:54;44.42;;;30.48;;
29210;SDS011;16250;49.932;10.980;2024-03-02T07:02:23;43.17;;;30.15;;
29210;SDS011;16250;49.932;10.980;2024-03-02T07:04:50;41.35;;;29.50;;
29210;SDS011;16250;49.932;10.980;2024-03-02T07:07:16;43.40;;;29.85;;
29210;SDS011;16250;49.932;10.980;2024-03-02T07:09:41;43.08;;;30.30;;
29210;SDS011;16250;49.932;10.980;2024-03-02T07:12:07;41.38;;;30.05;;
29210;SDS011;16250;49.932;10.980;2024-03-02T07:14:32;43.70;;;30.60;;
29210;SDS011;16250;49.932;10.980;2024-03-02T07:17:16;40.50;;;29.20;;
29210;SDS011;16250;49.932;10.980;2024-03-02T07:19:41;42.53;;;30.13;;
29210;SDS011;16250;49.932;10.980;2024-03-02T07:22:07;43.83;;;30.98;;
29210;SDS011;16250;49.932;10.980;2024-03-02T07:24:38;46.92;;;29.92;;
29210;SDS011;16250;49.932;10.980;2024-03-02T07:27:04;46.67;;;31.58;;
29210;SDS011;16250;49.932;10.980;2024-03-02T07:29:30;46.42;;;30.35;;
29210;SDS011;16250;49.932;10.980;2024-03-02T07:31:56;42.55;;;30.30;;
29210;SDS011;16250;49.932;10.980;2024-03-02T07:34:21;40.85;;;30.55;;
29210;SDS011;16250;49.932;10.980;2024-03-02T07:36:46;40.90;;;29.83;;
29210;SDS011;16250;49.932;10.980;2024-03-02T07:39:12;44.25;;;30.42;;
29210;SDS011;16250;49.932;10.980;2024-03-02T07:41:37;42.33;;;31.52;;
29210;SDS011;16250;49.932;10.980;2024-03-02T07:44:03;40.45;;;31.42;;
29210;SDS011;16250;49.932;10.980;2024-03-02T07:46:28;40.47;;;29.58;;
29210;SDS011;16250;49.932;10.980;2024-03-02T07:48:54;36.60;;;29.05;;
29210;SDS011;16250;49.932;10.980;2024-03-02T07:51:19;38.33;;;27.98;;
29210;SDS011;16250;49.932;10.980;2024-03-02T07:53:45;37.05;;;28.88;;
29210;SDS011;16250;49.932;10.980;2024-03-02T07:56:10;35.70;;;28.67;;
29210;SDS011;16250;49.932;10.980;2024-03-02T07:58:35;38.70;;;27.80;;
29210;SDS011;16250;49.932;10.980;2024-03-02T08:01:02;35.90;;;28.40;;
29210;SDS011;16250;49.932;10.980;2024-03-02T08:03:27;37.30;;;27.35;;
29210;SDS011;16250;49.932;10.980;2024-03-02T08:05:52;34.10;;;26.60;;
29210;SDS011;16250;49.932;10.980;2024-03-02T08:08:18;32.90;;;26.48;;
29210;SDS011;16250;49.932;10.980;2024-03-02T08:10:43;31.60;;;24.90;;
29210;SDS011;16250;49.932;10.980;2024-03-02T08:13:09;31.05;;;24.98;;
29210;SDS011;16250;49.932;10.980;2024-03-02T08:15:34;31.33;;;24.73;;
29210;SDS011;16250;49.932;10.980;2024-03-02T08:18:00;30.23;;;24.42;;
29210;SDS011;16250;49.932;10.980;2024-03-02T08:20:25;30.52;;;24.05;;
29210;SDS011;16250;49.932;10.980;2024-03-02T08:22:51;30.52;;;24.27;;
29210;SDS011;16250;49.932;10.980;2024-03-02T08:25:16;30.25;;;24.48;;
29210;SDS011;16250;49.932;10.980;2024-03-02T08:27:42;28.75;;;24.02;;
29210;SDS011;16250;49.932;10.980;2024-03-02T08:30:07;28.85;;;22.83;;
29210;SDS011;16250;49.932;10.980;2024-03-02T08:32:35;28.88;;;23.98;;
29210;SDS011;16250;49.932;10.980;2024-03-02T08:35:00;27.92;;;22.83;;
29210;SDS011;16250;49.932;10.980;2024-03-02T08:37:26;27.17;;;21.98;;
29210;SDS011;16250;49.932;10.980;2024-03-02T08:39:51;28.00;;;23.08;;
29210;SDS011;16250;49.932;10.980;2024-03-02T08:42:17;28.75;;;21.92;;
29210;SDS011;16250;49.932;10.980;2024-03-02T08:44:42;28.42;;;21.88;;
29210;SDS011;16250;49.932;10.980;2024-03-02T08:47:08;25.60;;;20.77;;
29210;SDS011;16250;49.932;10.980;2024-03-02T08:49:34;24.52;;;20.48;;
29210;SDS011;16250;49.932;10.980;2024-03-02T08:52:00;22.02;;;19.27;;
29210;SDS011;16250;49.932;10.980;2024-03-02T08:54:25;25.40;;;20.30;;
29210;SDS011;16250;49.932;10.980;2024-03-02T08:56:51;23.67;;;17.85;;
29210;SDS011;16250;49.932;10.980;2024-03-02T08:59:16;22.10;;;18.08;;
29210;SDS011;16250;49.932;10.980;2024-03-02T09:01:41;23.52;;;19.13;;
29210;SDS011;16250;49.932;10.980;2024-03-02T09:04:07;22.38;;;17.60;;
29210;SDS011;16250;49.932;10.980;2024-03-02T09:06:35;26.52;;;17.58;;
29210;SDS011;16250;49.932;10.980;2024-03-02T09:09:01;23.05;;;18.48;;
29210;SDS011;16250;49.932;10.980;2024-03-02T09:11:26;22.65;;;18.00;;
29210;SDS011;16250;49.932;10.980;2024-03-02T09:13:52;25.33;;;18.45;;
29210;SDS011;16250;49.932;10.980;2024-03-02T09:16:18;20.10;;;17.05;;
29210;SDS011;16250;49.932;10.980;2024-03-02T09:18:43;24.17;;;18.20;;
29210;SDS011;16250;49.932;10.980;2024-03-02T09:21:09;25.38;;;19.60;;
29210;SDS011;16250;49.932;10.980;2024-03-02T09:23:35;24.60;;;18.75;;
29210;SDS011;16250;49.932;10.980;2024-03-02T09:26:00;19.60;;;16.65;;
29210;SDS011;16250;49.932;10.980;2024-03-02T09:28:26;21.33;;;16.20;;
29210;SDS011;16250;49.932;10.980;2024-03-02T09:30:51;19.00;;;15.38;;
29210;SDS011;16250;49.932;10.980;2024-03-02T09:33:16;20.83;;;15.77;;
29210;SDS011;16250;49.932;10.980;2024-03-02T09:35:42;17.45;;;14.10;;
29210;SDS011;16250;49.932;10.980;2024-03-02T09:38:07;19.70;;;15.43;;
29210;SDS011;16250;49.932;10.980;2024-03-02T09:40:33;18.05;;;13.73;;
29210;SDS011;16250;49.932;10.980;2024-03-02T09:42:58;19.90;;;14.30;;
29210;SDS011;16250;49.932;10.980;2024-03-02T09:45:24;19.13;;;14.05;;
29210;SDS011;16250;49.932;10.980;2024-03-02T09:47:50;20.63;;;13.95;;
29210;SDS011;16250;49.932;10.980;2024-03-02T09:50:16;17.92;;;13.65;;
29210;SDS011;16250;49.932;10.980;2024-03-02T09:52:42;17.83;;;13.68;;
29210;SDS011;16250;49.932;10.980;2024-03-02T09:55:08;17.75;;;13.70;;
29210;SDS011;16250;49.932;10.980;2024-03-02T09:57:33;17.02;;;14.00;;
29210;SDS011;16250;49.932;10.980;2024-03-02T09:59:59;15.45;;;13.10;;
29210;SDS011;16250;49.932;10.980;2024-03-02T10:02:24;17.50;;;13.88;;
29210;SDS011;16250;49.932;10.980;2024-03-02T10:04:49;16.95;;;12.30;;
29210;SDS011;16250;49.932;10.980;2024-03-02T10:07:16;16.30;;;13.65;;
29210;SDS011;16250;49.932;10.980;2024-03-02T10:09:43;16.65;;;13.50;;
29210;SDS011;16250;49.932;10.980;2024-03-02T10:12:10;18.15;;;13.00;;
29210;SDS011;16250;49.932;10.980;2024-03-02T10:14:37;17.10;;;13.43;;
29210;SDS011;16250;49.932;10.980;2024-03-02T10:17:03;15.02;;;12.05;;
29210;SDS011;16250;49.932;10.980;2024-03-02T10:19:29;16.02;;;12.77;;
29210;SDS011;16250;49.932;10.980;2024-03-02T10:21:59;15.57;;;12.48;;
29210;SDS011;16250;49.932;10.980;2024-03-02T10:24:26;16.00;;;12.68;;
29210;SDS011;16250;49.932;10.980;2024-03-02T10:26:52;15.00;;;12.90;;
29210;SDS011;16250;49.932;10.980;2024-03-02T10:29:17;15.85;;;13.18;;
29210;SDS011;16250;49.932;10.980;2024-03-02T10:31:44;16.25;;;12.43;;
29210;SDS011;16250;49.932;10.980;2024-03-02T10:34:10;14.63;;;11.15;;
29210;SDS011;16250;49.932;10.980;2024-03-02T10:36:37;18.13;;;12.77;;
29210;SDS011;16250;49.932;10.980;2024-03-02T10:39:04;15.27;;;12.73;;
29210;SDS011;16250;49.932;10.980;2024-03-02T10:41:32;13.98;;;10.88;;
29210;SDS011;16250;49.932;10.980;2024-03-02T10:43:58;14.80;;;11.18;;
29210;SDS011;16250;49.932;10.980;2024-03-02T10:46:28;13.57;;;10.20;;
29210;SDS011;16250;49.932;10.980;2024-03-02T10:48:59;12.82;;;10.63;;
29210;SDS011;16250;49.932;10.980;2024-03-02T10:51:28;12.15;;;9.75;;
29210;SDS011;16250;49.932;10.980;2024-03-02T10:53:56;13.40;;;10.32;;
29210;SDS011;16250;49.932;10.980;2024-03-02T10:56:33;11.25;;;9.85;;
29210;SDS011;16250;49.932;10.980;2024-03-02T10:59:03;16.50;;;11.52;;
29210;SDS011;16250;49.932;10.980;2024-03-02T11:01:29;14.48;;;12.07;;
29210;SDS011;16250;49.932;10.980;2024-03-02T11:03:55;12.02;;;9.70;;
29210;SDS011;16250;49.932;10.980;2024-03-02T11:06:21;15.55;;;10.50;;
29210;SDS011;16250;49.932;10.980;2024-03-02T11:08:47;14.30;;;11.00;;
29210;SDS011;16250;49.932;10.980;2024-03-02T11:11:15;12.18;;;10.02;;
29210;SDS011;16250;49.932;10.980;2024-03-02T11:13:42;12.63;;;10.50;;
29210;SDS011;16250;49.932;10.980;2024-03-02T11:16:16;11.52;;;10.20;;
29210;SDS011;16250;49.932;10.980;2024-03-02T11:18:48;14.27;;;10.25;;
29210;SDS011;16250;49.932;10.980;2024-03-02T11:21:14;14.60;;;9.65;;
29210;SDS011;16250;49.932;10.980;2024-03-02T11:23:40;13.82;;;10.05;;
29210;SDS011;16250;49.932;10.980;2024-03-02T11:26:21;16.85;;;9.27;;
29210;SDS011;16250;49.932;10.980;2024-03-02T11:28:48;14.93;;;10.73;;
29210;SDS011;16250;49.932;10.980;2024-03-02T11:31:14;12.35;;;9.93;;
29210;SDS011;16250;49.932;10.980;2024-03-02T11:33:39;11.43;;;10.00;;
29210;SDS011;16250;49.932;10.980;2024-03-02T11:36:08;11.27;;;10.10;;
29210;SDS011;16250;49.932;10.980;2024-03-02T11:38:34;12.50;;;9.98;;
29210;SDS011;16250;49.932;10.980;2024-03-02T11:41:05;11.13;;;8.95;;
29210;SDS011;16250;49.932;10.980;2024-03-02T11:43:33;13.02;;;9.35;;
29210;SDS011;16250;49.932;10.980;2024-03-02T11:46:03;12.40;;;9.50;;
29210;SDS011;16250;49.932;10.980;2024-03-02T11:48:32;12.98;;;8.73;;
29210;SDS011;16250;49.932;10.980;2024-03-02T11:50:58;10.18;;;9.00;;
29210;SDS011;16250;49.932;10.980;2024-03-02T11:53:24;10.02;;;8.25;;
29210;SDS011;16250;49.932;10.980;2024-03-02T11:55:52;13.18;;;9.10;;
29210;SDS011;16250;49.932;10.980;2024-03-02T11:58:20;11.73;;;9.32;;
29210;SDS011;16250;49.932;10.980;2024-03-02T12:00:50;13.63;;;10.98;;
29210;SDS011;16250;49.932;10.980;2024-03-02T12:03:16;9.77;;;8.38;;
29210;SDS011;16250;49.932;10.980;2024-03-02T12:05:42;10.27;;;8.25;;
29210;SDS011;16250;49.932;10.980;2024-03-02T12:08:07;10.38;;;8.57;;
29210;SDS011;16250;49.932;10.980;2024-03-02T12:10:33;12.43;;;10.25;;
29210;SDS011;16250;49.932;10.980;2024-03-02T12:13:04;9.95;;;8.90;;
29210;SDS011;16250;49.932;10.980;2024-03-02T12:15:35;11.25;;;9.95;;
29210;SDS011;16250;49.932;10.980;2024-03-02T12:18:05;9.43;;;8.43;;
29210;SDS011;16250;49.932;10.980;2024-03-02T12:20:31;10.73;;;8.35;;
29210;SDS011;16250;49.932;10.980;2024-03-02T12:22:58;9.93;;;8.38;;
29210;SDS011;16250;49.932;10.980;2024-03-02T12:25:26;9.38;;;8.10;;
29210;SDS011;16250;49.932;10.980;2024-03-02T12:27:55;9.80;;;8.80;;
29210;SDS011;16250;49.932;10.980;2024-03-02T12:30:22;10.05;;;8.80;;
29210;SDS011;16250;49.932;10.980;2024-03-02T12:32:48;11.05;;;8.95;;
29210;SDS011;16250;49.932;10.980;2024-03-02T12:35:14;9.52;;;8.52;;
29210;SDS011;16250;49.932;10.980;2024-03-02T12:37:47;11.00;;;8.77;;
29210;SDS011;16250;49.932;10.980;2024-03-02T12:40:13;11.15;;;8.52;;
29210;SDS011;16250;49.932;10.980;2024-03-02T12:42:39;9.70;;;8.70;;
29210;SDS011;16250;49.932;10.980;2024-03-02T12:45:05;11.50;;;8.82;;
29210;SDS011;16250;49.932;10.980;2024-03-02T12:47:32;9.60;;;8.60;;
29210;SDS011;16250;49.932;10.980;2024-03-02T12:49:58;9.40;;;8.40;;
29210;SDS011;16250;49.932;10.980;2024-03-02T12:52:24;10.05;;;8.48;;
29210;SDS011;16250;49.932;10.980;2024-03-02T12:54:49;9.70;;;8.70;;
29210;SDS011;16250;49.932;10.980;2024-03-02T12:57:18;9.52;;;8.25;;
29210;SDS011;16250;49.932;10.980;2024-03-02T12:59:46;9.63;;;8.60;;
29210;SDS011;16250;49.932;10.980;2024-03-02T13:02:18;9.73;;;8.43;;
29210;SDS011;16250;49.932;10.980;2024-03-02T13:04:44;9.20;;;8.07;;
29210;SDS011;16250;49.932;10.980;2024-03-02T13:07:10;8.85;;;7.80;;
29210;SDS011;16250;49.932;10.980;2024-03-02T13:09:38;10.65;;;8.35;;
29210;SDS011;16250;49.932;10.980;2024-03-02T13:12:05;9.30;;;8.32;;
29210;SDS011;16250;49.932;10.980;2024-03-02T13:14:35;10.23;;;8.57;;
29210;SDS011;16250;49.932;10.980;2024-03-02T13:17:01;10.35;;;8.80;;
29210;SDS011;16250;49.932;10.980;2024-03-02T13:19:29;9.60;;;7.95;;
29210;SDS011;16250;49.932;10.980;2024-03-02T13:21:55;9.73;;;8.73;;
29210;SDS011;16250;49.932;10.980;2024-03-02T13:24:22;10.15;;;8.57;;
29210;SDS011;16250;49.932;10.980;2024-03-02T13:26:50;11.55;;;9.68;;
29210;SDS011;16250;49.932;10.980;2024-03-02T13:29:20;10.27;;;8.75;;
29210;SDS011;16250;49.932;10.980;2024-03-02T13:31:46;9.88;;;8.85;;
29210;SDS011;16250;49.932;10.980;2024-03-02T13:34:11;10.43;;;8.52;;
29210;SDS011;16250;49.932;10.980;2024-03-02T13:36:37;11.55;;;9.30;;
29210;SDS011;16250;49.932;10.980;2024-03-02T13:39:03;12.27;;;9.57;;
29210;SDS011;16250;49.932;10.980;2024-03-02T13:41:30;10.60;;;8.27;;
29210;SDS011;16250;49.932;10.980;2024-03-02T13:43:57;10.82;;;8.95;;
29210;SDS011;16250;49.932;10.980;2024-03-02T13:46:22;9.73;;;8.68;;
29210;SDS011;16250;49.932;10.980;2024-03-02T13:48:47;12.98;;;9.95;;
29210;SDS011;16250;49.932;10.980;2024-03-02T13:51:13;10.32;;;8.95;;
29210;SDS011;16250;49.932;10.980;2024-03-02T13:53:38;10.23;;;9.13;;
29210;SDS011;16250;49.932;10.980;2024-03-02T13:56:05;10.02;;;8.95;;
29210;SDS011;16250;49.932;10.980;2024-03-02T13:58:30;11.07;;;9.82;;
29210;SDS011;16250;49.932;10.980;2024-03-02T14:00:56;13.05;;;9.00;;
29210;SDS011;16250;49.932;10.980;2024-03-02T14:03:22;11.18;;;9.57;;
29210;SDS011;16250;49.932;10.980;2024-03-02T14:05:47;10.48;;;9.23;;
29210;SDS011;16250;49.932;10.980;2024-03-02T14:08:15;9.98;;;8.85;;
29210;SDS011;16250;49.932;10.980;2024-03-02T14:10:40;10.93;;;9.40;;